Time;durP1;ratioP1;P1;durP2;ratioP2;P2;SDS_P1;SDS_P2;PMS_P1;PMS_P2;Temp;Humidity;BMP_temperature;BMP_pressure;BME280_temperature;BME280_humidity;BME280_pressure;Samples;Min_cycle;Max_cycle;Signal;HPM_P1;HPM_P2
2021/01/08 00:02:19;;;;;;;13.63;8.32;;;;;;;;;;5032727;28;20080;-70
2021/01/08 00:04:45;;;;;;;16.80;9.02;;;;;;;;;;5033178;28;20051;-69
2021/01/08 00:07:11;;;;;;;15.63;9.88;;;;;;;;;;5032922;28;20073;-70
2021/01/08 00:09:38;;;;;;;14.50;8.52;;;;;;;;;;5033120;28;20110;-69
2021/01/08 00:12:05;;;;;;;14.63;9.57;;;;;;;;;;5032903;28;20105;-70
2021/01/08 00:14:31;;;;;;;14.20;8.55;;;;;;;;;;5033011;28;20539;-70
2021/01/08 00:16:57;;;;;;;16.50;8.27;;;;;;;;;;5050583;28;20110;-70
2021/01/08 00:19:24;;;;;;;13.85;8.18;;;;;;;;;;5051646;28;20068;-70
2021/01/08 00:21:50;;;;;;;14.02;8.32;;;;;;;;;;5052669;28;20048;-70
2021/01/08 00:24:16;;;;;;;14.90;9.02;;;;;;;;;;5052740;28;20048;-70
2021/01/08 00:26:42;;;;;;;15.15;9.30;;;;;;;;;;5036594;28;20112;-70
2021/01/08 00:29:09;;;;;;;14.88;9.10;;;;;;;;;;5044226;28;20069;-70
2021/01/08 00:31:39;;;;;;;16.15;9.25;;;;;;;;;;5052491;28;20076;-70
2021/01/08 00:34:07;;;;;;;14.98;8.73;;;;;;;;;;5052435;28;20045;-70
2021/01/08 00:36:33;;;;;;;13.80;8.18;;;;;;;;;;5037256;28;20099;-70
2021/01/08 00:39:00;;;;;;;13.55;8.02;;;;;;;;;;5032504;28;20045;-70
2021/01/08 00:41:35;;;;;;;16.05;9.05;;;;;;;;;;5032500;28;20049;-70
2021/01/08 00:44:01;;;;;;;14.52;8.15;;;;;;;;;;5032350;28;20084;-70
2021/01/08 00:46:34;;;;;;;13.38;7.93;;;;;;;;;;5045401;28;20427;-70
2021/01/08 00:49:04;;;;;;;13.18;8.13;;;;;;;;;;5052174;28;20048;-70
2021/01/08 00:51:31;;;;;;;13.95;8.93;;;;;;;;;;5051016;28;20110;-70
2021/01/08 00:53:57;;;;;;;12.45;8.30;;;;;;;;;;5052160;28;20045;-69
2021/01/08 00:56:23;;;;;;;13.73;8.43;;;;;;;;;;5052452;28;20080;-70
2021/01/08 00:58:49;;;;;;;13.80;8.00;;;;;;;;;;5052018;28;20084;-70
2021/01/08 01:01:16;;;;;;;12.38;7.78;;;;;;;;;;5051845;28;20052;-70
2021/01/08 01:03:42;;;;;;;12.65;8.20;;;;;;;;;;5052273;28;20060;-70
2021/01/08 01:06:08;;;;;;;16.33;7.95;;;;;;;;;;5042013;28;20111;-70
2021/01/08 01:08:35;;;;;;;11.13;7.53;;;;;;;;;;5032307;28;20041;-70
2021/01/08 01:11:01;;;;;;;13.55;7.68;;;;;;;;;;5032030;28;20071;-70
2021/01/08 01:13:27;;;;;;;13.82;7.75;;;;;;;;;;5032218;28;20135;-70
2021/01/08 01:15:53;;;;;;;11.80;7.25;;;;;;;;;;5031968;28;20072;-70
2021/01/08 01:18:19;;;;;;;9.85;6.45;;;;;;;;;;5031726;28;20427;-70
2021/01/08 01:20:47;;;;;;;10.88;6.55;;;;;;;;;;5031910;28;20054;-70
2021/01/08 01:23:13;;;;;;;10.68;6.95;;;;;;;;;;5030747;28;20115;-70
2021/01/08 01:25:39;;;;;;;12.30;6.82;;;;;;;;;;5031827;28;20049;-70
2021/01/08 01:28:05;;;;;;;13.65;7.75;;;;;;;;;;5031771;28;20539;-70
2021/01/08 01:30:32;;;;;;;12.27;7.15;;;;;;;;;;5032031;28;20069;-70
2021/01/08 01:32:58;;;;;;;11.45;6.78;;;;;;;;;;5031803;28;20096;-69
2021/01/08 01:35:25;;;;;;;10.10;5.55;;;;;;;;;;5031487;28;20093;-70
2021/01/08 01:37:54;;;;;;;10.40;6.55;;;;;;;;;;5031720;28;20100;-70
2021/01/08 01:40:20;;;;;;;11.73;6.60;;;;;;;;;;5031669;28;20049;-70
2021/01/08 01:42:46;;;;;;;12.98;6.85;;;;;;;;;;5031864;28;20115;-69
2021/01/08 01:45:13;;;;;;;11.15;6.68;;;;;;;;;;5032391;28;20107;-70
2021/01/08 01:47:39;;;;;;;9.93;7.22;;;;;;;;;;5053221;28;20045;-70
2021/01/08 01:50:07;;;;;;;8.82;5.97;;;;;;;;;;5055611;28;20597;-70
2021/01/08 01:52:35;;;;;;;10.95;5.88;;;;;;;;;;5054247;28;20076;-70
2021/01/08 01:55:05;;;;;;;11.48;7.53;;;;;;;;;;5025269;28;20049;-69
2021/01/08 01:57:31;;;;;;;12.98;7.07;;;;;;;;;;5034377;28;20045;-70
2021/01/08 01:59:57;;;;;;;11.27;6.10;;;;;;;;;;5034226;28;20053;-70
2021/01/08 02:02:28;;;;;;;14.75;6.78;;;;;;;;;;5035367;28;20049;-70
2021/01/08 02:04:55;;;;;;;12.38;7.10;;;;;;;;;;5034260;28;20069;-69
2021/01/08 02:07:21;;;;;;;11.63;6.78;;;;;;;;;;5017460;28;20057;-70
2021/01/08 02:09:47;;;;;;;10.00;6.30;;;;;;;;;;5017742;28;20103;-70
2021/01/08 02:12:13;;;;;;;11.52;6.88;;;;;;;;;;5033904;28;20259;-69
2021/01/08 02:14:40;;;;;;;10.52;6.50;;;;;;;;;;5026554;28;20574;-69
2021/01/08 02:17:06;;;;;;;10.00;6.45;;;;;;;;;;5018116;28;20057;-70
2021/01/08 02:19:45;;;;;;;11.18;6.38;;;;;;;;;;5017557;28;20455;-70
2021/01/08 02:22:44;;;;;;;9.68;6.28;;;;;;;;;;5033823;28;20128;-70
2021/01/08 02:25:13;;;;;;;10.52;6.30;;;;;;;;;;4985610;28;20049;-70
2021/01/08 02:27:40;;;;;;;9.70;6.60;;;;;;;;;;5015154;28;20464;-70
2021/01/08 02:30:06;;;;;;;9.40;6.72;;;;;;;;;;4997758;28;20045;-70
2021/01/08 02:32:33;;;;;;;9.77;6.18;;;;;;;;;;5014994;28;20076;-70
2021/01/08 02:35:01;;;;;;;10.55;5.82;;;;;;;;;;4997606;28;20452;-69
2021/01/08 02:37:28;;;;;;;12.93;6.82;;;;;;;;;;4997445;28;20103;-70
2021/01/08 02:39:54;;;;;;;9.65;5.95;;;;;;;;;;4997487;28;20093;-70
2021/01/08 02:42:20;;;;;;;12.25;7.28;;;;;;;;;;4997266;28;20058;-70
2021/01/08 02:44:46;;;;;;;13.43;6.65;;;;;;;;;;4997433;28;20100;-69
2021/01/08 02:47:12;;;;;;;10.45;6.30;;;;;;;;;;5014485;28;20089;-69
2021/01/08 02:49:38;;;;;;;10.73;6.15;;;;;;;;;;5014921;28;20052;-70
2021/01/08 02:52:05;;;;;;;9.27;5.00;;;;;;;;;;5014622;28;20550;-70
2021/01/08 02:54:31;;;;;;;9.45;5.97;;;;;;;;;;5010941;28;20080;-70
2021/01/08 02:56:57;;;;;;;8.57;5.60;;;;;;;;;;5052962;28;20087;-70
2021/01/08 02:59:23;;;;;;;9.38;5.65;;;;;;;;;;5052204;28;20723;-69
2021/01/08 03:01:49;;;;;;;9.32;5.75;;;;;;;;;;5053090;28;20515;-70
2021/01/08 03:04:15;;;;;;;8.85;5.38;;;;;;;;;;5052418;28;20139;-69
2021/01/08 03:06:43;;;;;;;9.68;6.13;;;;;;;;;;5016632;28;20046;-70
2021/01/08 03:09:09;;;;;;;8.13;4.90;;;;;;;;;;5032885;28;20049;-70
2021/01/08 03:11:35;;;;;;;9.15;5.38;;;;;;;;;;5032950;28;20099;-70
2021/01/08 03:14:01;;;;;;;8.32;5.45;;;;;;;;;;5034014;28;20095;-70
2021/01/08 03:16:27;;;;;;;8.50;5.20;;;;;;;;;;5035650;28;20057;-70
2021/01/08 03:18:53;;;;;;;7.80;4.90;;;;;;;;;;5053982;28;20052;-69
2021/01/08 03:21:20;;;;;;;6.60;4.30;;;;;;;;;;5053852;28;20048;-70
2021/01/08 03:23:46;;;;;;;7.90;4.82;;;;;;;;;;5054001;28;20100;-70
2021/01/08 03:26:12;;;;;;;6.68;4.38;;;;;;;;;;5052396;28;20076;-69
2021/01/08 03:28:38;;;;;;;6.38;4.20;;;;;;;;;;5034880;28;20130;-70
2021/01/08 03:31:04;;;;;;;6.28;4.05;;;;;;;;;;5033793;28;20080;-70
2021/01/08 03:33:30;;;;;;;7.47;4.47;;;;;;;;;;5033827;28;20053;-70
2021/01/08 03:35:56;;;;;;;7.30;4.80;;;;;;;;;;5033516;28;20057;-70
2021/01/08 03:38:22;;;;;;;7.20;4.70;;;;;;;;;;5037092;28;20076;-70
2021/01/08 03:40:48;;;;;;;8.18;4.85;;;;;;;;;;5053584;28;20045;-69
2021/01/08 03:43:14;;;;;;;8.57;4.57;;;;;;;;;;5053510;28;20048;-69
2021/01/08 03:45:40;;;;;;;8.40;4.68;;;;;;;;;;5053418;28;20048;-70
2021/01/08 03:48:06;;;;;;;8.18;5.15;;;;;;;;;;5053558;28;20072;-70
2021/01/08 03:50:32;;;;;;;10.43;5.18;;;;;;;;;;5053376;28;20525;-70
2021/01/08 03:52:58;;;;;;;7.57;5.05;;;;;;;;;;5053180;28;20107;-70
2021/01/08 03:55:24;;;;;;;8.35;5.07;;;;;;;;;;5053041;28;20081;-69
2021/01/08 03:57:50;;;;;;;8.48;4.80;;;;;;;;;;5053164;28;20482;-69
2021/01/08 04:00:17;;;;;;;9.73;5.53;;;;;;;;;;5053090;28;20073;-70
2021/01/08 04:02:43;;;;;;;10.18;6.03;;;;;;;;;;5052747;28;20076;-70
2021/01/08 04:05:10;;;;;;;9.02;5.90;;;;;;;;;;5052876;28;20055;-70
2021/01/08 04:07:36;;;;;;;10.20;6.20;;;;;;;;;;5068455;22;20041;-70
2021/01/08 04:10:02;;;;;;;10.98;6.43;;;;;;;;;;5052890;28;20091;-70
2021/01/08 04:12:28;;;;;;;11.85;6.65;;;;;;;;;;5051761;28;20048;-70
2021/01/08 04:14:54;;;;;;;13.88;7.97;;;;;;;;;;5059790;28;20528;-70
2021/01/08 04:17:20;;;;;;;13.77;7.28;;;;;;;;;;5071231;28;20449;-69
2021/01/08 04:19:46;;;;;;;13.13;8.20;;;;;;;;;;5055092;28;20044;-69
2021/01/08 04:22:12;;;;;;;14.20;7.50;;;;;;;;;;5069408;28;20086;-69
2021/01/08 04:24:38;;;;;;;12.98;7.60;;;;;;;;;;5051581;28;20049;-70
2021/01/08 04:27:04;;;;;;;12.20;7.65;;;;;;;;;;5052362;28;20049;-69
2021/01/08 04:29:31;;;;;;;12.77;8.18;;;;;;;;;;5034862;28;20549;-70
2021/01/08 04:31:57;;;;;;;10.27;6.63;;;;;;;;;;5051396;28;20049;-69
2021/01/08 04:34:23;;;;;;;12.63;7.47;;;;;;;;;;5052495;28;20055;-70
2021/01/08 04:36:49;;;;;;;13.05;8.15;;;;;;;;;;5051072;28;20076;-69
2021/01/08 04:39:15;;;;;;;15.80;8.27;;;;;;;;;;5051036;28;20546;-69
2021/01/08 04:41:41;;;;;;;13.13;8.15;;;;;;;;;;5052454;28;20060;-69
2021/01/08 04:44:08;;;;;;;13.60;7.15;;;;;;;;;;5034454;28;20049;-71
2021/01/08 04:46:35;;;;;;;9.65;6.50;;;;;;;;;;5054242;28;20106;-71
2021/01/08 04:49:06;;;;;;;14.23;7.97;;;;;;;;;;5071234;28;20427;-71
2021/01/08 04:51:35;;;;;;;13.05;7.82;;;;;;;;;;5072199;28;20572;-70
2021/01/08 04:54:01;;;;;;;11.65;7.70;;;;;;;;;;5038269;28;20080;-70
2021/01/08 04:56:29;;;;;;;13.38;7.65;;;;;;;;;;5017266;28;20057;-69
2021/01/08 04:58:55;;;;;;;13.80;7.82;;;;;;;;;;5011704;28;20099;-70
2021/01/08 05:01:21;;;;;;;12.90;7.57;;;;;;;;;;5037338;28;20439;-70
2021/01/08 05:03:47;;;;;;;11.75;6.90;;;;;;;;;;5051015;28;20053;-69
2021/01/08 05:06:14;;;;;;;12.13;7.10;;;;;;;;;;5051685;28;20049;-69
2021/01/08 05:08:40;;;;;;;13.23;7.63;;;;;;;;;;5054188;28;20094;-70
2021/01/08 05:11:45;;;;;;;14.40;8.00;;;;;;;;;;5050806;28;20098;-69
2021/01/08 05:14:13;;;;;;;12.52;7.25;;;;;;;;;;5034880;28;20048;-70
2021/01/08 05:16:40;;;;;;;12.93;8.57;;;;;;;;;;5034405;28;20462;-69
2021/01/08 05:19:06;;;;;;;15.02;9.77;;;;;;;;;;5034251;28;20080;-71
2021/01/08 05:21:33;;;;;;;15.38;7.95;;;;;;;;;;5050440;28;20053;-70
2021/01/08 05:24:03;;;;;;;15.38;7.80;;;;;;;;;;5034016;28;20088;-70
2021/01/08 05:26:29;;;;;;;12.38;7.80;;;;;;;;;;5053492;28;20049;-70
2021/01/08 05:28:59;;;;;;;10.43;7.30;;;;;;;;;;5050600;28;20037;-70
2021/01/08 05:31:29;;;;;;;9.82;6.15;;;;;;;;;;5034696;28;20049;-70
2021/01/08 05:33:57;;;;;;;8.90;5.72;;;;;;;;;;5035027;28;20049;-69
2021/01/08 05:36:24;;;;;;;9.55;5.93;;;;;;;;;;5050943;28;20122;-71
2021/01/08 05:38:57;;;;;;;9.15;5.85;;;;;;;;;;5046747;28;20071;-69
2021/01/08 05:41:26;;;;;;;9.18;5.55;;;;;;;;;;5056510;28;20511;-69
2021/01/08 05:43:52;;;;;;;10.27;6.00;;;;;;;;;;5054318;28;20053;-69
2021/01/08 05:46:22;;;;;;;10.25;5.72;;;;;;;;;;5071018;28;20115;-70
2021/01/08 05:48:51;;;;;;;9.63;5.53;;;;;;;;;;5057156;28;20045;-70
2021/01/08 05:51:21;;;;;;;7.53;5.35;;;;;;;;;;5074073;28;20029;-69
2021/01/08 05:53:49;;;;;;;11.10;5.78;;;;;;;;;;5061593;28;20295;-69
2021/01/08 05:56:22;;;;;;;8.05;4.90;;;;;;;;;;5077977;28;20078;-70
2021/01/08 05:58:48;;;;;;;9.52;6.07;;;;;;;;;;5094922;28;20036;-69
2021/01/08 06:01:15;;;;;;;9.40;5.25;;;;;;;;;;5078329;28;20472;-69
2021/01/08 06:03:43;;;;;;;7.38;5.45;;;;;;;;;;5075668;28;20048;-70
2021/01/08 06:06:09;;;;;;;8.18;4.85;;;;;;;;;;5077580;28;20058;-70
2021/01/08 06:08:45;;;;;;;6.95;4.43;;;;;;;;;;5077262;28;20036;-70
2021/01/08 06:11:29;;;;;;;7.13;4.38;;;;;;;;;;5093888;28;20074;-70
2021/01/08 06:13:57;;;;;;;9.43;5.68;;;;;;;;;;5076635;28;20070;-71
2021/01/08 06:16:23;;;;;;;7.30;4.80;;;;;;;;;;5078593;28;20037;-71
2021/01/08 06:18:55;;;;;;;9.77;4.90;;;;;;;;;;5088714;28;20045;-69
2021/01/08 06:21:34;;;;;;;6.00;4.47;;;;;;;;;;5094529;28;20044;-70
2021/01/08 06:24:00;;;;;;;7.18;4.85;;;;;;;;;;5078184;28;20048;-71
2021/01/08 06:26:26;;;;;;;7.93;4.53;;;;;;;;;;5094467;28;20163;-71
2021/01/08 06:28:52;;;;;;;6.18;4.15;;;;;;;;;;5077655;28;20033;-70
2021/01/08 06:31:25;;;;;;;8.18;4.57;;;;;;;;;;5075996;28;20049;-70
2021/01/08 06:33:55;;;;;;;7.75;4.57;;;;;;;;;;5077477;28;20052;-72
2021/01/08 06:36:34;;;;;;;9.52;5.88;;;;;;;;;;5086212;28;20029;-71
2021/01/08 06:39:12;;;;;;;9.75;5.55;;;;;;;;;;5062676;28;20049;-70
2021/01/08 06:41:41;;;;;;;9.63;6.00;;;;;;;;;;5057089;28;20491;-70
2021/01/08 06:44:07;;;;;;;7.40;5.57;;;;;;;;;;5037366;28;20053;-70
2021/01/08 06:46:42;;;;;;;9.25;5.32;;;;;;;;;;5055723;28;20049;-70
2021/01/08 06:49:11;;;;;;;11.98;6.63;;;;;;;;;;5054635;28;20099;-70
2021/01/08 06:51:39;;;;;;;9.00;5.65;;;;;;;;;;5068568;28;20048;-70
2021/01/08 06:54:10;;;;;;;9.52;5.03;;;;;;;;;;5075265;28;20059;-71
2021/01/08 06:56:43;;;;;;;8.70;5.18;;;;;;;;;;5070987;28;20084;-71
2021/01/08 06:59:10;;;;;;;9.82;6.07;;;;;;;;;;5065022;28;20099;-72
2021/01/08 07:01:54;;;;;;;10.93;5.43;;;;;;;;;;5051576;28;20087;-71
2021/01/08 07:04:25;;;;;;;7.18;4.82;;;;;;;;;;5052490;28;20049;-72
2021/01/08 07:06:56;;;;;;;10.27;4.90;;;;;;;;;;5034500;28;20469;-71
2021/01/08 07:09:32;;;;;;;7.05;4.47;;;;;;;;;;5043715;28;20070;-70
2021/01/08 07:11:59;;;;;;;6.97;4.43;;;;;;;;;;5054955;28;20056;-70
2021/01/08 07:14:25;;;;;;;7.03;3.63;;;;;;;;;;5071032;28;20048;-71
2021/01/08 07:16:53;;;;;;;6.80;4.15;;;;;;;;;;5067036;28;20095;-71
2021/01/08 07:19:22;;;;;;;6.43;3.95;;;;;;;;;;5053833;28;20055;-70
2021/01/08 07:21:56;;;;;;;6.00;3.58;;;;;;;;;;5070328;28;20080;-71
2021/01/08 07:24:33;;;;;;;4.93;3.65;;;;;;;;;;5072459;28;20057;-71
2021/01/08 07:27:14;;;;;;;5.25;3.53;;;;;;;;;;5054012;28;20515;-72
2021/01/08 07:29:53;;;;;;;6.32;3.35;;;;;;;;;;5052170;28;20091;-70
2021/01/08 07:32:34;;;;;;;6.68;3.90;;;;;;;;;;5050728;28;20045;-71
2021/01/08 07:35:23;;;;;;;6.50;4.18;;;;;;;;;;5051338;28;20555;-71
2021/01/08 07:38:05;;;;;;;7.85;4.80;;;;;;;;;;5059558;28;20044;-70
2021/01/08 07:40:33;;;;;;;6.03;4.00;;;;;;;;;;5041570;28;20048;-70
2021/01/08 07:43:10;;;;;;;5.80;4.32;;;;;;;;;;5034118;28;20103;-71
2021/01/08 07:45:58;;;;;;;7.45;4.07;;;;;;;;;;5029714;28;20050;-70
2021/01/08 07:48:25;;;;;;;8.25;4.60;;;;;;;;;;5029892;28;20057;-70
2021/01/08 07:51:01;;;;;;;7.32;3.80;;;;;;;;;;5031672;28;20083;-70
2021/01/08 07:53:43;;;;;;;5.28;3.38;;;;;;;;;;5030549;28;20049;-70
2021/01/08 07:56:14;;;;;;;5.65;4.00;;;;;;;;;;5063223;28;20094;-70
2021/01/08 07:58:45;;;;;;;6.75;4.43;;;;;;;;;;5053476;28;20048;-70
2021/01/08 08:01:12;;;;;;;6.22;4.30;;;;;;;;;;5053068;28;20052;-70
2021/01/08 08:03:40;;;;;;;8.38;5.32;;;;;;;;;;5053504;28;20044;-71
2021/01/08 08:06:07;;;;;;;7.95;5.30;;;;;;;;;;5069852;28;20481;-71
2021/01/08 08:08:38;;;;;;;8.65;4.40;;;;;;;;;;5053469;28;20045;-70
2021/01/08 08:11:12;;;;;;;5.80;4.13;;;;;;;;;;5049916;28;20084;-71
2021/01/08 08:13:38;;;;;;;7.18;4.10;;;;;;;;;;5050663;28;20458;-70
2021/01/08 08:16:05;;;;;;;8.10;4.38;;;;;;;;;;5049430;28;20052;-71
2021/01/08 08:18:31;;;;;;;7.07;4.47;;;;;;;;;;5051372;28;20045;-70
2021/01/08 08:21:17;;;;;;;7.00;4.32;;;;;;;;;;5056148;28;20054;-70
2021/01/08 08:24:00;;;;;;;7.85;4.00;;;;;;;;;;5067733;28;20197;-75
2021/01/08 08:26:27;;;;;;;7.32;5.03;;;;;;;;;;5042673;28;20052;-70
2021/01/08 08:29:03;;;;;;;6.93;4.72;;;;;;;;;;5032464;28;20501;-71
2021/01/08 08:31:31;;;;;;;6.75;4.45;;;;;;;;;;5048545;28;20045;-72
2021/01/08 08:33:58;;;;;;;5.78;4.28;;;;;;;;;;5015791;28;20106;-73
2021/01/08 08:36:25;;;;;;;5.18;3.45;;;;;;;;;;5031840;28;20045;-71
2021/01/08 08:39:07;;;;;;;5.82;3.92;;;;;;;;;;5050186;28;20048;-72
2021/01/08 08:41:37;;;;;;;4.85;3.45;;;;;;;;;;5029943;28;20045;-72
2021/01/08 08:44:03;;;;;;;4.72;3.47;;;;;;;;;;5030767;28;20118;-71
2021/01/08 08:46:49;;;;;;;4.57;3.72;;;;;;;;;;5049056;28;20053;-71
2021/01/08 08:49:20;;;;;;;6.68;3.60;;;;;;;;;;5038619;28;20080;-71
2021/01/08 08:51:50;;;;;;;4.68;3.22;;;;;;;;;;5047501;28;20084;-72
2021/01/08 08:54:17;;;;;;;5.43;3.35;;;;;;;;;;5032074;28;20131;-71
2021/01/08 08:56:56;;;;;;;4.70;3.58;;;;;;;;;;5046821;28;20076;-71
2021/01/08 08:59:35;;;;;;;4.80;3.65;;;;;;;;;;5032564;28;20454;-72
2021/01/08 09:02:02;;;;;;;4.28;2.65;;;;;;;;;;5058958;28;20052;-72
2021/01/08 09:04:28;;;;;;;4.25;2.47;;;;;;;;;;5050605;28;20056;-72
2021/01/08 09:06:56;;;;;;;5.75;3.40;;;;;;;;;;5068169;28;20048;-72
2021/01/08 09:09:23;;;;;;;5.80;3.35;;;;;;;;;;5049237;28;20099;-72
2021/01/08 09:12:00;;;;;;;5.15;3.30;;;;;;;;;;5016040;28;20553;-72
2021/01/08 09:14:28;;;;;;;4.40;2.95;;;;;;;;;;5034426;28;20075;-72
2021/01/08 09:16:54;;;;;;;5.10;3.55;;;;;;;;;;5034107;28;20507;-72
2021/01/08 09:19:32;;;;;;;4.88;3.22;;;;;;;;;;5034883;28;20102;-68
2021/01/08 09:21:58;;;;;;;4.10;2.85;;;;;;;;;;5052050;28;20049;-68
2021/01/08 09:24:28;;;;;;;4.80;3.42;;;;;;;;;;5050569;28;20076;-70
2021/01/08 09:27:01;;;;;;;5.72;3.90;;;;;;;;;;5050344;28;20049;-70
2021/01/08 09:29:30;;;;;;;8.43;4.70;;;;;;;;;;5020763;28;20056;-73
2021/01/08 09:31:58;;;;;;;8.30;4.28;;;;;;;;;;5051298;28;20529;-71
2021/01/08 09:34:25;;;;;;;4.93;2.88;;;;;;;;;;5033397;28;20118;-74
2021/01/08 09:36:52;;;;;;;4.43;2.92;;;;;;;;;;5016396;28;20052;-72
2021/01/08 09:39:19;;;;;;;5.80;3.13;;;;;;;;;;5049486;28;20072;-75
2021/01/08 09:41:54;;;;;;;4.88;3.70;;;;;;;;;;5050778;28;20071;-73
2021/01/08 09:44:20;;;;;;;5.82;2.90;;;;;;;;;;5049667;28;20553;-73
2021/01/08 09:46:59;;;;;;;4.93;2.58;;;;;;;;;;5049071;28;20068;-76
2021/01/08 09:49:37;;;;;;;4.72;2.83;;;;;;;;;;5050561;28;20129;-72
2021/01/08 09:52:04;;;;;;;3.45;2.60;;;;;;;;;;5033906;28;20049;-75
2021/01/08 09:54:46;;;;;;;6.07;3.72;;;;;;;;;;5032691;28;20563;-73
2021/01/08 09:57:34;;;;;;;4.30;2.88;;;;;;;;;;5094781;22;20037;-72
2021/01/08 10:00:03;;;;;;;5.13;3.55;;;;;;;;;;5016443;28;20488;-72
2021/01/08 10:02:38;;;;;;;5.95;3.70;;;;;;;;;;5041460;28;20085;-74
2021/01/08 10:05:29;;;;;;;4.80;3.35;;;;;;;;;;5039297;28;20064;-72
2021/01/08 10:07:57;;;;;;;3.92;2.90;;;;;;;;;;5054487;22;20095;-70
2021/01/08 10:10:26;;;;;;;4.47;3.00;;;;;;;;;;5052155;28;20459;-71
2021/01/08 10:12:57;;;;;;;4.43;2.88;;;;;;;;;;5054160;28;20052;-72
2021/01/08 10:15:40;;;;;;;4.22;2.58;;;;;;;;;;5053406;28;20057;-70
2021/01/08 10:18:16;;;;;;;3.70;2.45;;;;;;;;;;5043600;28;20492;-69
2021/01/08 10:20:48;;;;;;;5.63;3.70;;;;;;;;;;5044532;28;20427;-71
2021/01/08 10:23:16;;;;;;;9.85;5.47;;;;;;;;;;5019057;28;20123;-70
2021/01/08 10:25:42;;;;;;;5.90;4.07;;;;;;;;;;5041932;28;20045;-69
2021/01/08 10:28:14;;;;;;;7.82;3.38;;;;;;;;;;5040532;28;20059;-69
2021/01/08 10:30:40;;;;;;;5.88;3.30;;;;;;;;;;5038802;28;20046;-69
2021/01/08 10:33:07;;;;;;;4.90;3.17;;;;;;;;;;5041443;28;20114;-69
2021/01/08 10:35:38;;;;;;;8.73;3.75;;;;;;;;;;5042057;28;20053;-70
2021/01/08 10:38:04;;;;;;;4.45;3.53;;;;;;;;;;5041195;28;20049;-70
2021/01/08 10:40:30;;;;;;;5.15;3.58;;;;;;;;;;5043577;28;20099;-69
2021/01/08 10:42:57;;;;;;;5.65;4.68;;;;;;;;;;5044124;28;20472;-69
2021/01/08 10:45:23;;;;;;;11.70;4.90;;;;;;;;;;5042854;28;20881;-70
2021/01/08 10:47:49;;;;;;;5.97;3.55;;;;;;;;;;5044271;28;20076;-70
2021/01/08 10:50:20;;;;;;;6.00;4.30;;;;;;;;;;5043350;28;20049;-70
2021/01/08 10:52:46;;;;;;;6.47;4.05;;;;;;;;;;5041931;28;20045;-69
2021/01/08 10:55:23;;;;;;;7.75;4.78;;;;;;;;;;5040668;28;20068;-69
2021/01/08 10:57:49;;;;;;;6.22;4.15;;;;;;;;;;5044542;28;20049;-72
2021/01/08 11:00:18;;;;;;;7.93;4.43;;;;;;;;;;5042936;28;20091;-71
2021/01/08 11:02:49;;;;;;;6.78;4.30;;;;;;;;;;5041127;28;20462;-69
2021/01/08 11:05:16;;;;;;;8.15;5.00;;;;;;;;;;5039875;28;20056;-71
2021/01/08 11:07:42;;;;;;;7.43;4.53;;;;;;;;;;5042291;28;20100;-73
2021/01/08 11:10:08;;;;;;;7.57;5.30;;;;;;;;;;5041206;28;20042;-73
2021/01/08 11:12:35;;;;;;;7.32;4.60;;;;;;;;;;5041401;28;20049;-72
2021/01/08 11:15:02;;;;;;;9.48;4.57;;;;;;;;;;5044164;28;20056;-73
2021/01/08 11:17:29;;;;;;;6.28;4.03;;;;;;;;;;5043091;28;20099;-71
2021/01/08 11:19:55;;;;;;;5.78;4.57;;;;;;;;;;5036435;28;20046;-71
2021/01/08 11:22:34;;;;;;;8.48;4.85;;;;;;;;;;5041143;28;20103;-73
2021/01/08 11:25:03;;;;;;;7.97;5.72;;;;;;;;;;5025028;28;20076;-68
2021/01/08 11:27:29;;;;;;;8.00;5.78;;;;;;;;;;5040840;28;20158;-69
2021/01/08 11:29:55;;;;;;;12.20;5.63;;;;;;;;;;5040716;28;20102;-68
2021/01/08 11:32:21;;;;;;;9.80;6.00;;;;;;;;;;5043303;28;20107;-71
2021/01/08 11:34:47;;;;;;;8.82;5.45;;;;;;;;;;5058035;28;20044;-69
2021/01/08 11:37:13;;;;;;;10.20;5.97;;;;;;;;;;5040704;28;20049;-69
2021/01/08 11:39:47;;;;;;;7.78;5.55;;;;;;;;;;5044021;28;20132;-69
2021/01/08 11:42:16;;;;;;;9.82;6.38;;;;;;;;;;5037267;28;20073;-71
2021/01/08 11:44:43;;;;;;;9.98;5.65;;;;;;;;;;5042041;28;20045;-71
2021/01/08 11:47:09;;;;;;;11.73;7.15;;;;;;;;;;5040535;28;20061;-71
2021/01/08 11:49:35;;;;;;;9.82;6.97;;;;;;;;;;5044061;28;20041;-71
2021/01/08 11:52:02;;;;;;;11.32;6.82;;;;;;;;;;5040924;28;20087;-70
2021/01/08 11:54:28;;;;;;;9.50;5.88;;;;;;;;;;5039914;28;20088;-71
2021/01/08 11:56:54;;;;;;;10.85;6.10;;;;;;;;;;5042230;28;20088;-70
2021/01/08 11:59:20;;;;;;;13.73;6.20;;;;;;;;;;5041503;28;20572;-70
2021/01/08 12:01:46;;;;;;;7.85;4.90;;;;;;;;;;5041311;28;20053;-71
2021/01/08 12:04:13;;;;;;;8.68;5.30;;;;;;;;;;5042299;28;20534;-74
2021/01/08 12:06:39;;;;;;;9.85;4.95;;;;;;;;;;5035394;28;20465;-73
2021/01/08 12:09:11;;;;;;;7.82;5.40;;;;;;;;;;5042746;28;20056;-71
2021/01/08 12:11:38;;;;;;;6.67;3.77;;;;;;;;;;5040850;28;20103;-70
2021/01/08 12:14:04;;;;;;;8.75;4.60;;;;;;;;;;5036395;28;20101;-71
2021/01/08 12:16:31;;;;;;;7.82;4.88;;;;;;;;;;5039546;28;20049;-70
2021/01/08 12:18:59;;;;;;;8.38;4.68;;;;;;;;;;5043109;28;20045;-72
2021/01/08 12:21:28;;;;;;;6.72;4.97;;;;;;;;;;5040902;28;20585;-70
2021/01/08 12:23:54;;;;;;;6.45;4.30;;;;;;;;;;5043268;28;20049;-70
2021/01/08 12:26:20;;;;;;;7.05;4.80;;;;;;;;;;5059558;28;20476;-71
2021/01/08 12:28:48;;;;;;;8.38;4.50;;;;;;;;;;5042894;28;20049;-70
2021/01/08 12:31:15;;;;;;;10.38;5.43;;;;;;;;;;5040926;28;20049;-70
2021/01/08 12:33:41;;;;;;;7.90;5.32;;;;;;;;;;5042528;28;20401;-70
2021/01/08 12:36:09;;;;;;;10.82;5.03;;;;;;;;;;5041971;28;20075;-70
2021/01/08 12:38:35;;;;;;;8.52;5.32;;;;;;;;;;5040165;28;20499;-70
2021/01/08 12:41:01;;;;;;;10.02;6.55;;;;;;;;;;5040243;28;20041;-70
2021/01/08 12:43:28;;;;;;;9.52;5.18;;;;;;;;;;5039612;28;20049;-70
2021/01/08 12:45:54;;;;;;;7.28;4.47;;;;;;;;;;5039693;28;20119;-70
2021/01/08 12:48:20;;;;;;;8.20;4.10;;;;;;;;;;5040040;28;20048;-70
2021/01/08 12:50:46;;;;;;;6.95;4.30;;;;;;;;;;5042222;28;20076;-69
2021/01/08 12:53:13;;;;;;;6.40;4.22;;;;;;;;;;5041256;28;20492;-71
2021/01/08 12:55:39;;;;;;;7.30;4.53;;;;;;;;;;5050632;28;20061;-72
2021/01/08 12:58:05;;;;;;;6.95;4.50;;;;;;;;;;5039541;28;20049;-72
2021/01/08 13:00:31;;;;;;;6.85;4.38;;;;;;;;;;5057725;28;20041;-72
2021/01/08 13:02:58;;;;;;;6.82;3.78;;;;;;;;;;5040388;28;20049;-72
2021/01/08 13:05:24;;;;;;;6.78;4.05;;;;;;;;;;5041797;28;20132;-73
2021/01/08 13:07:51;;;;;;;5.65;3.67;;;;;;;;;;5040887;28;20044;-72
2021/01/08 13:10:17;;;;;;;5.50;3.53;;;;;;;;;;5041262;28;20509;-73
2021/01/08 13:12:43;;;;;;;5.30;3.60;;;;;;;;;;5040230;28;20045;-73
2021/01/08 13:15:09;;;;;;;6.45;4.68;;;;;;;;;;5042654;28;20102;-73
2021/01/08 13:17:35;;;;;;;7.65;5.03;;;;;;;;;;5041024;28;20045;-72
2021/01/08 13:20:03;;;;;;;6.25;4.15;;;;;;;;;;5039581;28;20133;-72
2021/01/08 13:22:29;;;;;;;6.93;4.05;;;;;;;;;;5046161;28;20507;-74
2021/01/08 13:24:55;;;;;;;6.00;3.85;;;;;;;;;;5032498;28;20515;-72
2021/01/08 13:27:21;;;;;;;6.75;3.88;;;;;;;;;;5032605;28;20080;-73
2021/01/08 13:29:47;;;;;;;7.90;4.00;;;;;;;;;;5035673;28;20534;-72
2021/01/08 13:32:14;;;;;;;7.45;4.50;;;;;;;;;;5041123;28;20255;-73
2021/01/08 13:34:41;;;;;;;6.15;3.67;;;;;;;;;;5040624;28;20049;-75
2021/01/08 13:37:07;;;;;;;5.97;3.97;;;;;;;;;;5040628;28;20076;-74
2021/01/08 13:39:35;;;;;;;8.02;3.90;;;;;;;;;;5037287;28;20515;-74
2021/01/08 13:42:04;;;;;;;7.43;4.00;;;;;;;;;;5054446;28;20068;-74
2021/01/08 13:44:40;;;;;;;;;;;;;;;;;;;;;
2021/01/08 13:47:07;;;;;;;6.47;3.33;;;;;;;;;;5045491;28;20147;-72
2021/01/08 13:49:35;;;;;;;6.40;3.97;;;;;;;;;;5042785;28;20041;-73
2021/01/08 13:52:03;;;;;;;7.25;4.18;;;;;;;;;;5043805;28;20120;-73
2021/01/08 13:54:30;;;;;;;6.75;4.90;;;;;;;;;;5044968;28;20049;-72
2021/01/08 13:56:58;;;;;;;8.75;4.25;;;;;;;;;;5043549;28;20040;-74
2021/01/08 13:59:24;;;;;;;7.18;4.38;;;;;;;;;;5010373;28;20056;-72
2021/01/08 14:01:50;;;;;;;7.07;4.38;;;;;;;;;;5058601;28;20052;-71
2021/01/08 14:04:17;;;;;;;5.57;3.53;;;;;;;;;;5060595;28;20053;-71
2021/01/08 14:06:45;;;;;;;8.77;4.60;;;;;;;;;;5044105;28;20099;-74
2021/01/08 14:09:12;;;;;;;7.07;4.00;;;;;;;;;;5043689;28;20516;-72
2021/01/08 14:11:39;;;;;;;6.93;4.25;;;;;;;;;;5043082;28;20495;-72
2021/01/08 14:14:07;;;;;;;12.57;4.70;;;;;;;;;;5042317;28;20049;-72
2021/01/08 14:16:34;;;;;;;6.97;4.40;;;;;;;;;;5043229;28;20104;-73
2021/01/08 14:19:01;;;;;;;9.70;5.22;;;;;;;;;;5059291;28;20138;-73
2021/01/08 14:21:37;;;;;;;9.75;5.05;;;;;;;;;;5042149;28;20407;-71
2021/01/08 14:24:07;;;;;;;8.73;5.03;;;;;;;;;;5043258;28;20057;-71
2021/01/08 14:26:35;;;;;;;6.53;4.25;;;;;;;;;;5038109;28;20127;-71
2021/01/08 14:29:02;;;;;;;8.63;4.20;;;;;;;;;;5058412;28;20045;-71
2021/01/08 14:31:32;;;;;;;6.80;4.13;;;;;;;;;;5043299;28;20096;-74
2021/01/08 14:34:05;;;;;;;8.32;4.50;;;;;;;;;;5056582;28;20124;-71
2021/01/08 14:36:34;;;;;;;12.20;6.47;;;;;;;;;;5035265;28;20056;-73
2021/01/08 14:39:00;;;;;;;12.00;5.40;;;;;;;;;;5036265;28;20139;-72
2021/01/08 14:41:26;;;;;;;11.68;5.38;;;;;;;;;;5036391;28;20045;-74
2021/01/08 14:43:53;;;;;;;12.35;5.88;;;;;;;;;;5027086;28;20569;-72
2021/01/08 14:46:22;;;;;;;11.70;5.43;;;;;;;;;;5036195;28;20137;-73
2021/01/08 14:48:49;;;;;;;9.07;5.45;;;;;;;;;;5041365;28;20099;-71
2021/01/08 14:51:32;;;;;;;12.07;7.07;;;;;;;;;;5034923;28;20057;-73